Wakefield, Michigan
Current Conditions -  °F | °C
As of 6:15 AM on Monday 24 Nov 2014 (Local Time) from KIWD Reporting Station
Overcast Overcast  
Wind Chill: 29°   Ceiling: 400
Heat Index: 36°   Visibility: 7mi
Dew Point: 36°   Wind: 8mph
Humidity: 100%   Direction: 320°NW
Pressure: 29.1"   Gusts: NA
Location:  46.48°N, 89.94°W
Report Text: KIWD 241215Z AUTO 32007KT 7SM OVC004 02/02 A2910 RMK AO1
Loading
Personal Weather Stations






























Interactive Weather Map New forecast layout! Learn more

10-Day Weather Forecast

Advertisements
Track Severe Weather on mobile